createdAt,value
2018-02-23T00:01:26.085Z,15.27
2018-02-23T00:03:54.226Z,15.50
2018-02-23T00:06:22.359Z,15.10
2018-02-23T00:08:50.470Z,14.35
2018-02-23T00:11:18.804Z,14.57
2018-02-23T00:13:46.940Z,14.07
2018-02-23T00:16:15.046Z,15.85
2018-02-23T00:18:43.929Z,14.45
2018-02-23T00:21:12.836Z,14.68
2018-02-23T00:23:41.818Z,14.13
2018-02-23T00:26:09.986Z,13.70
2018-02-23T00:28:38.064Z,14.07
2018-02-23T00:31:06.969Z,13.75
2018-02-23T00:33:35.116Z,13.07
2018-02-23T00:36:03.984Z,13.90
2018-02-23T00:38:32.104Z,13.90
2018-02-23T00:41:00.248Z,13.80
2018-02-23T00:43:29.152Z,12.80
2018-02-23T00:45:58.035Z,12.37
2018-02-23T00:48:26.935Z,13.07
2018-02-23T00:50:55.111Z,12.57
2018-02-23T00:53:23.243Z,12.80
2018-02-23T00:55:51.367Z,12.45
2018-02-23T00:58:19.523Z,12.55
2018-02-23T01:00:48.399Z,12.70
2018-02-23T01:03:17.514Z,12.40
2018-02-23T01:05:46.387Z,13.43
2018-02-23T01:08:15.291Z,12.52
2018-02-23T01:10:43.427Z,12.68
2018-02-23T01:13:11.571Z,12.68
2018-02-23T01:15:39.708Z,11.90
2018-02-23T01:18:08.583Z,11.55
2018-02-23T01:20:37.493Z,11.70
2018-02-23T01:23:05.663Z,12.37
2018-02-23T01:25:33.783Z,11.50
2018-02-23T01:28:01.943Z,12.68
2018-02-23T01:30:30.020Z,12.25
2018-02-23T01:32:58.163Z,11.55
2018-02-23T01:35:26.308Z,11.93
2018-02-23T01:37:54.513Z,12.20
2018-02-23T01:40:22.627Z,12.37
2018-02-23T01:42:50.851Z,11.98
2018-02-23T01:45:18.980Z,12.10
2018-02-23T01:47:47.091Z,12.10
2018-02-23T01:50:15.203Z,13.25
2018-02-23T01:52:43.427Z,13.15
2018-02-23T01:55:11.561Z,13.00
2018-02-23T01:57:39.679Z,13.65
2018-02-23T02:00:07.793Z,14.32
2018-02-23T02:02:35.946Z,13.13
2018-02-23T02:05:04.084Z,13.70
2018-02-23T02:07:32.979Z,14.40
2018-02-23T02:10:01.107Z,14.45
2018-02-23T02:12:29.229Z,14.93
2018-02-23T02:14:57.426Z,14.27
2018-02-23T02:17:25.543Z,14.52
2018-02-23T02:19:53.659Z,14.95
2018-02-23T02:22:21.805Z,14.63
2018-02-23T02:24:50.915Z,15.23
2018-02-23T02:27:19.042Z,15.35
2018-02-23T02:29:47.147Z,15.18
2018-02-23T02:32:15.282Z,15.40
2018-02-23T02:34:43.415Z,15.52
2018-02-23T02:37:11.538Z,15.73
2018-02-23T02:39:39.746Z,16.17
2018-02-23T02:42:07.874Z,16.10
2018-02-23T02:44:36.015Z,16.08
2018-02-23T02:47:04.161Z,16.45
2018-02-23T02:49:32.289Z,17.40
2018-02-23T02:52:00.461Z,16.90
2018-02-23T02:54:28.583Z,17.48
2018-02-23T02:56:56.703Z,17.80
2018-02-23T02:59:24.820Z,18.10
2018-02-23T03:01:52.954Z,18.40
2018-02-23T03:04:21.082Z,19.52
2018-02-23T03:06:49.198Z,18.83
2018-02-23T03:09:17.339Z,18.23
2018-02-23T03:11:45.482Z,19.27
2018-02-23T03:14:13.636Z,18.65
2018-02-23T03:16:42.514Z,18.40
2018-02-23T03:19:10.711Z,19.45
2018-02-23T03:21:39.624Z,18.60
2018-02-23T03:24:07.785Z,19.05
2018-02-23T03:26:35.946Z,19.45
2018-02-23T03:29:04.834Z,18.58
2018-02-23T03:31:33.719Z,18.87
2018-02-23T03:34:02.732Z,19.67
2018-02-23T03:36:30.894Z,19.98
2018-02-23T03:38:59.014Z,19.33
2018-02-23T03:41:27.128Z,19.23
2018-02-23T03:43:56.152Z,20.37
2018-02-23T03:46:24.308Z,19.95
2018-02-23T03:48:52.480Z,19.90
2018-02-23T03:51:20.598Z,19.30
2018-02-23T03:53:48.724Z,19.62
2018-02-23T03:56:16.862Z,19.45
2018-02-23T03:58:45.752Z,21.65
2018-02-23T04:01:13.964Z,21.48
2018-02-23T04:03:42.138Z,20.30
2018-02-23T04:06:10.275Z,21.20
2018-02-23T04:08:38.398Z,21.45
2018-02-23T04:11:06.552Z,21.00
2018-02-23T04:13:34.932Z,21.00
2018-02-23T04:16:03.102Z,21.25
2018-02-23T04:18:31.276Z,21.37
2018-02-23T04:20:59.404Z,21.10
2018-02-23T04:23:27.539Z,20.80
2018-02-23T04:25:55.692Z,22.13
2018-02-23T04:28:23.812Z,21.65
2018-02-23T04:30:51.947Z,22.08
2018-02-23T04:33:20.083Z,22.00
2018-02-23T04:35:48.219Z,23.00
2018-02-23T04:38:16.359Z,22.27
2018-02-23T04:40:44.531Z,23.05
2018-02-23T04:43:12.667Z,22.42
2018-02-23T04:45:40.792Z,21.87
2018-02-23T04:48:08.906Z,24.00
2018-02-23T04:50:37.122Z,22.20
2018-02-23T04:53:05.247Z,23.15
2018-02-23T04:55:33.387Z,23.17
2018-02-23T04:58:01.508Z,23.25
2018-02-23T05:00:29.619Z,22.42
2018-02-23T05:02:57.754Z,23.02
2018-02-23T05:05:26.666Z,23.40
2018-02-23T05:07:54.784Z,23.85
2018-02-23T05:10:22.911Z,24.23
2018-02-23T05:12:51.047Z,24.17
2018-02-23T05:15:19.195Z,22.90
2018-02-23T05:17:47.326Z,23.42
2018-02-23T05:20:16.203Z,24.45
2018-02-23T05:22:45.133Z,23.45
2018-02-23T05:25:13.487Z,23.45
2018-02-23T05:27:41.678Z,25.15
2018-02-23T05:30:09.795Z,24.17
2018-02-23T05:32:37.935Z,25.12
2018-02-23T05:35:06.074Z,25.30
2018-02-23T05:37:34.225Z,24.35
2018-02-23T05:40:03.109Z,24.20
2018-02-23T05:42:31.311Z,24.77
2018-02-23T05:44:59.471Z,25.30
2018-02-23T05:47:28.370Z,23.15
2018-02-23T05:49:56.499Z,23.55
2018-02-23T05:52:24.622Z,24.10
2018-02-23T05:54:52.759Z,24.48
2018-02-23T05:57:20.985Z,24.65
2018-02-23T05:59:49.084Z,23.95
2018-02-23T06:02:17.232Z,25.00
2018-02-23T06:04:45.344Z,25.62
2018-02-23T06:07:13.476Z,24.65
2018-02-23T06:09:41.619Z,25.02
2018-02-23T06:12:09.742Z,25.33
2018-02-23T06:14:37.972Z,24.35
2018-02-23T06:17:11.761Z,24.75
2018-02-23T06:19:46.501Z,25.77
2018-02-23T06:22:14.639Z,25.17
2018-02-23T06:24:42.797Z,24.27
2018-02-23T06:27:10.944Z,26.67
2018-02-23T06:29:39.074Z,25.27
2018-02-23T06:32:07.944Z,25.62
2018-02-23T06:34:36.075Z,24.75
2018-02-23T06:37:04.214Z,24.80
2018-02-23T06:39:32.394Z,25.35
2018-02-23T06:42:00.570Z,25.48
2018-02-23T06:44:28.745Z,25.80
2018-02-23T06:47:02.526Z,24.52
2018-02-23T06:49:31.424Z,24.92
2018-02-23T06:52:00.346Z,25.02
2018-02-23T06:54:28.464Z,26.67
2018-02-23T06:56:56.616Z,24.85
2018-02-23T06:59:24.739Z,24.67
2018-02-23T07:01:52.852Z,24.95
2018-02-23T07:04:20.995Z,24.85
2018-02-23T07:06:49.252Z,23.85
2018-02-23T07:09:18.254Z,23.48
2018-02-23T07:11:46.428Z,23.55
2018-02-23T07:14:14.561Z,24.23
2018-02-23T07:16:42.696Z,24.83
2018-02-23T07:19:10.844Z,24.27
2018-02-23T07:21:38.989Z,23.55
2018-02-23T07:24:07.188Z,24.52
2018-02-23T07:26:35.358Z,24.15
2018-02-23T07:29:04.294Z,23.15
2018-02-23T07:31:32.418Z,25.50
2018-02-23T07:34:01.391Z,23.52
2018-02-23T07:36:30.025Z,24.33
2018-02-23T07:38:58.204Z,24.35
2018-02-23T07:41:26.356Z,24.65
2018-02-23T07:43:54.523Z,24.48
2018-02-23T07:46:24.096Z,22.37
2018-02-23T07:48:52.549Z,23.50
2018-02-23T07:51:21.088Z,23.05
2018-02-23T07:53:49.404Z,23.58
2018-02-23T07:56:17.912Z,23.92
2018-02-23T07:58:46.008Z,23.33
2018-02-23T08:01:15.123Z,23.48
2018-02-23T08:03:44.111Z,23.40
2018-02-23T08:06:12.299Z,23.20
2018-02-23T08:08:40.592Z,22.92
2018-02-23T08:11:08.750Z,23.58
2018-02-23T08:13:38.182Z,21.85
2018-02-23T08:16:06.619Z,22.90
2018-02-23T08:18:35.085Z,23.27
2018-02-23T08:21:03.985Z,22.40
2018-02-23T08:23:32.707Z,22.02
2018-02-23T08:26:01.128Z,22.10
2018-02-23T08:28:30.047Z,21.80
2018-02-23T08:30:59.101Z,20.73
2018-02-23T08:33:28.023Z,21.15
2018-02-23T08:35:56.225Z,21.85
2018-02-23T08:38:25.011Z,22.62
2018-02-23T08:40:54.083Z,21.55
2018-02-23T08:43:22.199Z,19.83
2018-02-23T08:45:50.419Z,20.02
2018-02-23T08:48:18.601Z,19.40
2018-02-23T08:50:46.767Z,20.58
2018-02-23T08:53:14.883Z,20.08
2018-02-23T08:55:43.035Z,19.42
2018-02-23T08:58:11.436Z,19.40
2018-02-23T09:00:47.944Z,19.08
2018-02-23T09:03:17.746Z,19.05
2018-02-23T09:05:46.655Z,19.33
2018-02-23T09:08:15.098Z,18.87
2018-02-23T09:10:43.355Z,19.75
2018-02-23T09:13:11.665Z,18.30
2018-02-23T09:15:39.832Z,19.33
2018-02-23T09:18:08.054Z,19.10
2018-02-23T09:20:36.175Z,18.70
2018-02-23T09:23:05.126Z,18.98
2018-02-23T09:25:33.301Z,18.30
2018-02-23T09:28:01.581Z,18.15
2018-02-23T09:30:30.773Z,18.42
2018-02-23T09:32:59.925Z,19.37
2018-02-23T09:35:28.976Z,18.48
2018-02-23T09:37:57.266Z,17.70
2018-02-23T09:40:25.866Z,17.80
2018-02-23T09:42:54.355Z,18.45
2018-02-23T09:45:23.301Z,17.35
2018-02-23T09:47:51.608Z,18.05
2018-02-23T09:50:19.764Z,16.12
2018-02-23T09:52:47.852Z,17.50
2018-02-23T09:55:16.776Z,17.70
2018-02-23T09:57:44.946Z,16.90
2018-02-23T10:00:13.118Z,18.55
2018-02-23T10:02:42.046Z,17.00
2018-02-23T10:05:10.288Z,17.33
2018-02-23T10:07:39.330Z,17.25
2018-02-23T10:10:07.466Z,16.02
2018-02-23T10:12:37.915Z,16.25
2018-02-23T10:15:06.068Z,16.33
2018-02-23T10:17:34.664Z,15.68
2018-02-23T10:20:03.757Z,15.63
2018-02-23T10:22:31.930Z,15.55
2018-02-23T10:25:00.510Z,15.43
2018-02-23T10:27:28.874Z,14.65
2018-02-23T10:29:57.048Z,15.45
2018-02-23T10:32:25.504Z,14.35
2018-02-23T10:34:54.596Z,14.27
2018-02-23T10:37:24.214Z,13.60
2018-02-23T10:39:53.131Z,14.60
2018-02-23T10:42:21.780Z,14.60
2018-02-23T10:44:50.717Z,13.07
2018-02-23T10:47:18.988Z,14.48
2018-02-23T10:49:47.937Z,14.10
2018-02-23T10:52:16.254Z,14.43
2018-02-23T10:54:44.504Z,13.75
2018-02-23T10:57:12.979Z,15.23
2018-02-23T10:59:41.839Z,14.20
2018-02-23T11:02:10.499Z,14.63
2018-02-23T11:04:38.685Z,14.60
2018-02-23T11:07:06.815Z,15.15
2018-02-23T11:09:34.926Z,14.75
2018-02-23T11:12:03.055Z,14.73
2018-02-23T11:14:31.801Z,13.98
2018-02-23T11:16:59.911Z,12.85
2018-02-23T11:19:29.771Z,13.48
2018-02-23T11:21:57.884Z,14.05
2018-02-23T11:24:25.999Z,14.23
2018-02-23T11:26:54.572Z,12.82
2018-02-23T11:29:22.742Z,12.15
2018-02-23T11:31:51.035Z,12.80
2018-02-23T11:34:19.123Z,12.18
2018-02-23T11:36:47.467Z,11.73
2018-02-23T11:39:15.616Z,11.68
2018-02-23T11:41:43.787Z,10.35
2018-02-23T11:44:12.089Z,10.65
2018-02-23T11:46:40.443Z,9.25
2018-02-23T11:49:08.615Z,9.23
2018-02-23T11:51:37.503Z,9.57
2018-02-23T11:54:05.672Z,9.65
2018-02-23T11:56:33.851Z,8.05
2018-02-23T11:59:01.999Z,7.95
2018-02-23T12:01:30.887Z,8.35
2018-02-23T12:03:59.086Z,8.90
2018-02-23T12:06:27.259Z,8.15
2018-02-23T12:08:55.427Z,8.70
2018-02-23T12:11:24.359Z,9.38
2018-02-23T12:13:52.470Z,9.23
2018-02-23T12:16:20.589Z,8.85
2018-02-23T12:18:48.731Z,9.32
2018-02-23T12:21:17.642Z,9.00
2018-02-23T12:23:46.544Z,9.45
2018-02-23T12:26:14.646Z,9.93
2018-02-23T12:28:42.794Z,9.95
2018-02-23T12:31:10.930Z,9.70
2018-02-23T12:33:39.111Z,9.95
2018-02-23T12:36:07.267Z,10.07
2018-02-23T12:38:36.166Z,9.48
2018-02-23T12:41:05.045Z,9.48
2018-02-23T12:43:33.968Z,8.90
2018-02-23T12:46:02.152Z,9.02
2018-02-23T12:48:30.505Z,8.05
2018-02-23T12:50:58.615Z,8.30
2018-02-23T12:53:26.748Z,8.68
2018-02-23T12:55:54.950Z,8.45
2018-02-23T12:58:23.088Z,8.93
2018-02-23T13:00:51.992Z,8.38
2018-02-23T13:03:20.150Z,8.15
2018-02-23T13:05:48.287Z,8.13
2018-02-23T13:08:16.426Z,7.70
2018-02-23T13:10:44.602Z,8.50
2018-02-23T13:13:12.691Z,7.68
2018-02-23T13:15:40.902Z,7.85
2018-02-23T13:18:09.028Z,8.30
2018-02-23T13:20:37.128Z,7.68
2018-02-23T13:23:05.248Z,7.93
2018-02-23T13:25:33.373Z,8.00
2018-02-23T13:28:07.292Z,8.43
2018-02-23T13:30:36.171Z,8.65
2018-02-23T13:33:04.280Z,8.50
2018-02-23T13:35:32.478Z,7.95
2018-02-23T13:38:00.617Z,7.55
2018-02-23T13:40:31.348Z,8.23
2018-02-23T13:43:00.256Z,7.37
2018-02-23T13:45:28.375Z,7.62
2018-02-23T13:47:56.503Z,8.20
2018-02-23T13:50:24.612Z,8.20
2018-02-23T13:52:54.240Z,8.27
2018-02-23T13:55:22.471Z,7.62
2018-02-23T13:57:50.651Z,7.57
2018-02-23T14:00:18.803Z,7.87
2018-02-23T14:02:46.908Z,8.13
2018-02-23T14:05:15.056Z,8.45
2018-02-23T14:07:43.186Z,7.05
2018-02-23T14:10:12.087Z,8.95
2018-02-23T14:12:41.091Z,7.47
2018-02-23T14:15:09.227Z,7.57
2018-02-23T14:17:38.879Z,7.53
2018-02-23T14:20:07.070Z,8.25
2018-02-23T14:22:35.156Z,7.85
2018-02-23T14:25:03.264Z,7.62
2018-02-23T14:27:31.399Z,7.60
2018-02-23T14:29:59.560Z,7.85
2018-02-23T14:32:27.688Z,8.50
2018-02-23T14:34:56.555Z,7.28
2018-02-23T14:37:24.696Z,7.65
2018-02-23T14:39:52.831Z,7.65
2018-02-23T14:42:21.727Z,7.28
2018-02-23T14:44:50.032Z,7.53
2018-02-23T14:47:18.204Z,7.32
2018-02-23T14:49:58.311Z,7.95
2018-02-23T14:52:27.206Z,7.57
2018-02-23T14:54:56.144Z,7.32
2018-02-23T14:57:24.256Z,7.30
2018-02-23T14:59:53.189Z,7.37
2018-02-23T15:02:22.576Z,7.57
2018-02-23T15:04:50.707Z,7.22
2018-02-23T15:07:18.863Z,7.78
2018-02-23T15:09:46.991Z,7.15
2018-02-23T15:12:15.163Z,7.45
2018-02-23T15:14:44.064Z,7.10
2018-02-23T15:17:12.230Z,7.22
2018-02-23T15:19:40.387Z,7.30
2018-02-23T15:22:09.423Z,7.40
2018-02-23T15:24:37.511Z,6.93
2018-02-23T15:27:05.636Z,7.20
2018-02-23T15:29:34.527Z,7.50
2018-02-23T15:32:29.539Z,7.55
2018-02-23T15:34:57.715Z,7.28
2018-02-23T15:37:25.825Z,7.43
2018-02-23T15:39:53.990Z,8.13
2018-02-23T15:42:22.091Z,8.40
2018-02-23T15:44:51.008Z,7.85
2018-02-23T15:50:35.235Z,7.50
2018-02-23T15:53:04.873Z,7.55
2018-02-23T15:55:33.769Z,7.47
2018-02-23T15:58:13.492Z,8.07
2018-02-23T16:00:41.621Z,7.43
2018-02-23T16:03:09.747Z,7.68
2018-02-23T16:05:38.627Z,7.35
2018-02-23T16:08:06.764Z,6.95
2018-02-23T16:10:35.324Z,7.53
2018-02-23T16:13:03.455Z,7.22
2018-02-23T16:15:31.575Z,8.13
2018-02-23T16:17:59.717Z,7.37
2018-02-23T16:20:28.601Z,7.97
2018-02-23T16:22:57.501Z,7.90
2018-02-23T16:25:26.375Z,7.68
2018-02-23T16:27:54.496Z,8.13
2018-02-23T16:30:22.651Z,7.75
2018-02-23T16:32:50.815Z,7.20
2018-02-23T16:35:19.691Z,7.70
2018-02-23T16:37:48.599Z,7.45
2018-02-23T16:40:16.751Z,7.72
2018-02-23T16:42:45.622Z,8.63
2018-02-23T16:45:13.730Z,8.50
2018-02-23T16:47:41.897Z,7.70
2018-02-23T16:50:10.047Z,8.32
2018-02-23T16:52:38.249Z,7.80
2018-02-23T16:55:06.373Z,8.60
2018-02-23T16:57:34.486Z,8.05
2018-02-23T17:00:02.635Z,8.48
2018-02-23T17:02:30.843Z,8.25
2018-02-23T17:04:58.980Z,8.45
2018-02-23T17:07:27.128Z,8.07
2018-02-23T17:09:55.242Z,7.70
2018-02-23T17:12:24.122Z,7.93
2018-02-23T17:14:53.004Z,7.65
2018-02-23T17:17:21.122Z,7.50
2018-02-23T17:19:49.254Z,7.50
2018-02-23T17:22:17.362Z,7.45
2018-02-23T17:24:45.488Z,7.70
2018-02-23T17:27:13.644Z,7.80
2018-02-23T17:29:41.872Z,7.70
2018-02-23T17:32:10.017Z,7.10
2018-02-23T17:34:38.214Z,8.07
2018-02-23T17:37:07.084Z,7.55
2018-02-23T17:39:35.975Z,7.78
2018-02-23T17:42:04.112Z,7.55
2018-02-23T17:44:32.227Z,8.02
2018-02-23T17:47:01.144Z,8.23
2018-02-23T17:49:29.332Z,7.78
2018-02-23T17:51:57.440Z,7.80
2018-02-23T17:54:25.564Z,7.78
2018-02-23T17:56:53.667Z,7.55
2018-02-23T17:59:21.887Z,8.35
2018-02-23T18:01:50.884Z,8.15
2018-02-23T18:04:19.768Z,8.10
2018-02-23T18:06:48.641Z,7.60
2018-02-23T18:09:17.541Z,8.75
2018-02-23T18:11:46.547Z,8.32
2018-02-23T18:14:15.440Z,8.30
2018-02-23T18:16:44.341Z,8.02
2018-02-23T18:19:12.501Z,8.60
2018-02-23T18:21:40.666Z,8.18
2018-02-23T18:24:09.539Z,8.30
2018-02-23T18:26:37.736Z,8.27
2018-02-23T18:29:05.859Z,8.23
2018-02-23T18:31:33.985Z,8.00
2018-02-23T18:34:02.107Z,8.57
2018-02-23T18:36:30.211Z,8.60
2018-02-23T18:38:59.123Z,9.10
2018-02-23T18:41:27.261Z,9.02
2018-02-23T18:43:55.465Z,8.88
2018-02-23T18:46:23.581Z,9.20
2018-02-23T18:48:51.705Z,8.65
2018-02-23T18:51:20.694Z,9.52
2018-02-23T18:53:49.589Z,8.57
2018-02-23T18:56:18.479Z,8.38
2018-02-23T18:58:46.605Z,8.50
2018-02-23T19:01:14.731Z,9.20
2018-02-23T19:03:42.896Z,9.70
2018-02-23T19:06:11.776Z,8.70
2018-02-23T19:08:40.681Z,8.60
2018-02-23T19:11:08.833Z,9.63
2018-02-23T19:13:36.905Z,8.82
2018-02-23T19:16:05.805Z,8.73
2018-02-23T19:18:34.694Z,9.15
2018-02-23T19:21:03.620Z,9.25
2018-02-23T19:23:31.712Z,9.68
2018-02-23T19:25:59.837Z,9.18
2018-02-23T19:28:28.707Z,9.57
2018-02-23T19:30:57.615Z,9.27
2018-02-23T19:33:25.738Z,9.88
2018-02-23T19:35:53.855Z,9.23
2018-02-23T19:38:22.739Z,9.50
2018-02-23T19:40:51.618Z,9.30
2018-02-23T19:43:20.523Z,9.50
2018-02-23T19:45:49.420Z,9.27
2018-02-23T19:48:17.533Z,9.80
2018-02-23T19:50:45.754Z,9.10
2018-02-23T19:53:14.650Z,9.40
2018-02-23T19:55:43.644Z,9.55
2018-02-23T19:58:12.510Z,9.45
2018-02-23T20:00:40.654Z,9.43
2018-02-23T20:03:08.759Z,9.30
2018-02-23T20:05:37.639Z,9.45
2018-02-23T20:08:05.764Z,10.13
2018-02-23T20:10:33.902Z,9.75
2018-02-23T20:13:02.788Z,10.32
2018-02-23T20:15:31.689Z,10.10
2018-02-23T20:18:00.731Z,9.73
2018-02-23T20:20:29.680Z,9.90
2018-02-23T20:22:58.558Z,10.13
2018-02-23T20:25:27.502Z,9.95
2018-02-23T20:27:55.626Z,9.70
2018-02-23T20:30:24.560Z,10.38
2018-02-23T20:32:52.688Z,9.90
2018-02-23T20:35:20.865Z,10.48
2018-02-23T20:37:49.008Z,10.25
2018-02-23T20:40:17.155Z,10.43
2018-02-23T20:42:45.282Z,10.43
2018-02-23T20:45:13.454Z,10.50
2018-02-23T20:47:42.334Z,10.23
2018-02-23T20:50:11.242Z,9.80
2018-02-23T20:52:39.357Z,9.40
2018-02-23T20:55:07.484Z,10.32
2018-02-23T20:57:35.652Z,9.73
2018-02-23T21:00:04.540Z,10.35
2018-02-23T21:02:33.434Z,9.70
2018-02-23T21:05:02.312Z,9.95
2018-02-23T21:07:31.183Z,9.10
2018-02-23T21:10:00.824Z,9.55
2018-02-23T21:12:28.940Z,9.40
2018-02-23T21:14:57.045Z,9.93
2018-02-23T21:17:25.953Z,9.40
2018-02-23T21:19:54.859Z,9.77
2018-02-23T21:22:23.726Z,10.55
2018-02-23T21:24:52.622Z,9.52
2018-02-23T21:27:21.520Z,10.00
2018-02-23T21:29:49.652Z,9.82
2018-02-23T21:32:17.766Z,10.60
2018-02-23T21:34:45.927Z,10.02
2018-02-23T21:37:14.820Z,9.57
2018-02-23T21:39:43.699Z,10.43
2018-02-23T21:42:12.644Z,10.75
2018-02-23T21:44:47.398Z,10.07
2018-02-23T21:47:15.532Z,10.63
2018-02-23T21:49:43.675Z,10.65
2018-02-23T21:52:11.792Z,11.10
2018-02-23T21:54:39.912Z,10.30
2018-02-23T21:57:08.088Z,10.40
2018-02-23T21:59:36.227Z,10.10
2018-02-23T22:02:04.369Z,10.30
2018-02-23T22:04:32.487Z,10.68
2018-02-23T22:07:00.691Z,9.90
2018-02-23T22:09:28.827Z,9.93
2018-02-23T22:11:56.956Z,10.30
2018-02-23T22:14:25.082Z,10.35
2018-02-23T22:16:54.006Z,9.93
2018-02-23T22:19:22.123Z,10.23
2018-02-23T22:21:50.336Z,10.10
2018-02-23T22:24:19.227Z,10.02
2018-02-23T22:26:47.371Z,10.65
2018-02-23T22:29:15.491Z,10.02
2018-02-23T22:31:43.639Z,10.45
2018-02-23T22:34:12.536Z,10.18
2018-02-23T22:36:40.661Z,9.73
2018-02-23T22:39:08.794Z,10.43
2018-02-23T22:41:36.935Z,10.38
2018-02-23T22:44:05.845Z,11.05
2018-02-23T22:46:33.966Z,10.77
2018-02-23T22:49:02.128Z,10.40
2018-02-23T22:51:30.371Z,11.38
2018-02-23T22:53:59.243Z,10.82
2018-02-23T22:56:28.145Z,11.40
2018-02-23T22:58:56.284Z,10.63
2018-02-23T23:01:25.923Z,10.48
2018-02-23T23:03:54.053Z,10.75
2018-02-23T23:06:22.166Z,11.50
2018-02-23T23:08:50.339Z,10.90
2018-02-23T23:11:19.215Z,11.45
2018-02-23T23:13:48.097Z,11.70
2018-02-23T23:16:16.991Z,11.93
2018-02-23T23:18:45.909Z,11.75
2018-02-23T23:21:14.072Z,12.32
2018-02-23T23:23:42.196Z,12.57
2018-02-23T23:26:10.419Z,12.05
2018-02-23T23:28:38.567Z,12.27
2018-02-23T23:31:07.481Z,12.15
2018-02-23T23:33:35.603Z,12.37
2018-02-23T23:36:03.818Z,12.85
2018-02-23T23:38:32.710Z,12.98
2018-02-23T23:41:00.884Z,13.10
2018-02-23T23:43:29.026Z,13.27
2018-02-23T23:45:57.228Z,12.57
2018-02-23T23:48:26.108Z,13.05
2018-02-23T23:50:55.003Z,13.60
2018-02-23T23:53:23.910Z,13.62
2018-02-23T23:55:52.071Z,13.95
2018-02-23T23:58:20.964Z,13.45
